sensor_id;sensor_type;location;lat;lon;timestamp;pressure;altitude;pressure_sealevel;temperature;humidity
7480;BME280;3781;42.272;22.658;2022-08-25T00:00:07;94436.19;;;19.81;100.00
7480;BME280;3781;42.272;22.658;2022-08-25T00:02:34;94444.13;;;19.60;100.00
7480;BME280;3781;42.272;22.658;2022-08-25T00:05:00;94449.88;;;19.35;100.00
7480;BME280;3781;42.272;22.658;2022-08-25T00:07:27;94454.94;;;19.37;100.00
7480;BME280;3781;42.272;22.658;2022-08-25T00:09:54;94456.19;;;19.75;100.00
7480;BME280;3781;42.272;22.658;2022-08-25T00:12:21;94462.03;;;19.98;100.00
7480;BME280;3781;42.272;22.658;2022-08-25T00:14:47;94471.47;;;20.20;100.00
7480;BME280;3781;42.272;22.658;2022-08-25T00:17:16;94475.75;;;20.21;100.00
7480;BME280;3781;42.272;22.658;2022-08-25T00:19:43;94478.72;;;20.46;100.00
7480;BME280;3781;42.272;22.658;2022-08-25T00:22:10;94476.47;;;20.43;100.00
7480;BME280;3781;42.272;22.658;2022-08-25T00:24:37;94476.03;;;20.05;100.00
7480;BME280;3781;42.272;22.658;2022-08-25T00:27:04;94472.50;;;19.58;100.00
7480;BME280;3781;42.272;22.658;2022-08-25T00:29:32;94472.34;;;19.38;100.00
7480;BME280;3781;42.272;22.658;2022-08-25T00:31:59;94456.63;;;19.51;100.00
7480;BME280;3781;42.272;22.658;2022-08-25T00:34:30;94470.28;;;19.89;100.00
7480;BME280;3781;42.272;22.658;2022-08-25T00:36:58;94453.69;;;19.95;100.00
7480;BME280;3781;42.272;22.658;2022-08-25T00:39:25;94452.84;;;19.88;100.00
7480;BME280;3781;42.272;22.658;2022-08-25T00:41:55;94464.63;;;19.92;100.00
7480;BME280;3781;42.272;22.658;2022-08-25T00:44:23;94458.50;;;19.85;100.00
7480;BME280;3781;42.272;22.658;2022-08-25T00:46:52;94460.97;;;19.93;100.00
7480;BME280;3781;42.272;22.658;2022-08-25T00:49:23;94448.41;;;19.95;100.00
7480;BME280;3781;42.272;22.658;2022-08-25T00:51:58;94445.50;;;19.77;100.00
7480;BME280;3781;42.272;22.658;2022-08-25T00:54:28;94437.09;;;19.67;100.00
7480;BME280;3781;42.272;22.658;2022-08-25T00:56:57;94425.06;;;19.58;100.00
7480;BME280;3781;42.272;22.658;2022-08-25T00:59:25;94411.78;;;19.66;100.00
7480;BME280;3781;42.272;22.658;2022-08-25T01:01:53;94443.81;;;19.69;100.00
7480;BME280;3781;42.272;22.658;2022-08-25T01:04:21;94437.78;;;19.82;100.00
7480;BME280;3781;42.272;22.658;2022-08-25T01:06:48;94399.59;;;19.65;100.00
7480;BME280;3781;42.272;22.658;2022-08-25T01:09:17;94432.97;;;19.58;100.00
7480;BME280;3781;42.272;22.658;2022-08-25T01:11:46;94436.03;;;19.54;100.00
7480;BME280;3781;42.272;22.658;2022-08-25T01:14:16;94434.06;;;19.35;100.00
7480;BME280;3781;42.272;22.658;2022-08-25T01:16:43;94434.28;;;19.40;100.00
7480;BME280;3781;42.272;22.658;2022-08-25T01:19:12;94429.41;;;19.37;100.00
7480;BME280;3781;42.272;22.658;2022-08-25T01:21:43;94421.75;;;19.21;100.00
7480;BME280;3781;42.272;22.658;2022-08-25T01:24:15;94421.88;;;19.34;100.00
7480;BME280;3781;42.272;22.658;2022-08-25T01:26:46;94434.16;;;19.27;100.00
7480;BME280;3781;42.272;22.658;2022-08-25T01:29:13;94440.75;;;19.38;100.00
7480;BME280;3781;42.272;22.658;2022-08-25T01:31:53;94438.13;;;19.66;100.00
7480;BME280;3781;42.272;22.658;2022-08-25T01:34:23;94442.91;;;19.55;100.00
7480;BME280;3781;42.272;22.658;2022-08-25T01:36:52;94443.75;;;19.63;100.00
7480;BME280;3781;42.272;22.658;2022-08-25T01:39:19;94442.91;;;19.83;100.00
7480;BME280;3781;42.272;22.658;2022-08-25T01:41:58;94459.03;;;20.08;100.00
7480;BME280;3781;42.272;22.658;2022-08-25T01:44:29;94440.19;;;20.11;100.00
7480;BME280;3781;42.272;22.658;2022-08-25T01:46:56;94456.00;;;20.11;100.00
7480;BME280;3781;42.272;22.658;2022-08-25T01:49:23;94455.94;;;20.32;100.00
7480;BME280;3781;42.272;22.658;2022-08-25T01:51:55;94453.97;;;20.54;100.00
7480;BME280;3781;42.272;22.658;2022-08-25T01:54:22;94453.16;;;20.53;100.00
7480;BME280;3781;42.272;22.658;2022-08-25T01:56:49;94454.19;;;20.52;100.00
7480;BME280;3781;42.272;22.658;2022-08-25T01:59:17;94444.88;;;20.63;100.00
7480;BME280;3781;42.272;22.658;2022-08-25T02:01:44;94441.16;;;20.38;100.00
7480;BME280;3781;42.272;22.658;2022-08-25T02:04:11;94451.28;;;20.00;100.00
7480;BME280;3781;42.272;22.658;2022-08-25T02:06:38;94449.03;;;19.97;100.00
7480;BME280;3781;42.272;22.658;2022-08-25T02:09:09;94436.19;;;19.81;100.00
7480;BME280;3781;42.272;22.658;2022-08-25T02:11:38;94443.16;;;20.01;100.00
7480;BME280;3781;42.272;22.658;2022-08-25T02:14:07;94444.94;;;20.22;100.00
7480;BME280;3781;42.272;22.658;2022-08-25T02:16:35;94446.19;;;20.33;100.00
7480;BME280;3781;42.272;22.658;2022-08-25T02:19:05;94447.03;;;20.40;100.00
7480;BME280;3781;42.272;22.658;2022-08-25T02:21:33;94442.56;;;20.47;100.00
7480;BME280;3781;42.272;22.658;2022-08-25T02:24:00;94439.38;;;20.64;100.00
7480;BME280;3781;42.272;22.658;2022-08-25T02:26:29;94442.66;;;20.79;100.00
7480;BME280;3781;42.272;22.658;2022-08-25T02:28:56;94434.16;;;20.90;100.00
7480;BME280;3781;42.272;22.658;2022-08-25T02:31:24;94435.03;;;21.04;100.00
7480;BME280;3781;42.272;22.658;2022-08-25T02:33:51;94439.91;;;21.07;100.00
7480;BME280;3781;42.272;22.658;2022-08-25T02:36:20;94444.00;;;21.10;100.00
7480;BME280;3781;42.272;22.658;2022-08-25T02:38:47;94441.75;;;21.13;100.00
7480;BME280;3781;42.272;22.658;2022-08-25T02:41:15;94446.00;;;21.21;100.00
7480;BME280;3781;42.272;22.658;2022-08-25T02:43:46;94450.91;;;21.30;100.00
7480;BME280;3781;42.272;22.658;2022-08-25T02:46:14;94449.25;;;21.23;100.00
7480;BME280;3781;42.272;22.658;2022-08-25T02:48:41;94453.69;;;21.02;100.00
7480;BME280;3781;42.272;22.658;2022-08-25T02:51:09;94438.78;;;20.62;100.00
7480;BME280;3781;42.272;22.658;2022-08-25T02:53:37;94455.94;;;20.39;100.00
7480;BME280;3781;42.272;22.658;2022-08-25T02:56:05;94455.84;;;20.19;100.00
7480;BME280;3781;42.272;22.658;2022-08-25T02:58:33;94447.66;;;20.07;100.00
7480;BME280;3781;42.272;22.658;2022-08-25T03:01:01;94455.97;;;20.04;100.00
7480;BME280;3781;42.272;22.658;2022-08-25T03:03:28;94448.44;;;20.01;100.00
7480;BME280;3781;42.272;22.658;2022-08-25T03:05:55;94445.66;;;20.09;100.00
7480;BME280;3781;42.272;22.658;2022-08-25T03:08:22;94456.50;;;20.27;100.00
7480;BME280;3781;42.272;22.658;2022-08-25T03:10:50;94457.16;;;20.36;100.00
7480;BME280;3781;42.272;22.658;2022-08-25T03:13:17;94466.16;;;20.48;100.00
7480;BME280;3781;42.272;22.658;2022-08-25T03:15:44;94460.03;;;20.41;100.00
7480;BME280;3781;42.272;22.658;2022-08-25T03:18:12;94453.53;;;20.44;100.00
7480;BME280;3781;42.272;22.658;2022-08-25T03:20:40;94456.38;;;20.42;100.00
7480;BME280;3781;42.272;22.658;2022-08-25T03:23:06;94454.72;;;20.35;100.00
7480;BME280;3781;42.272;22.658;2022-08-25T03:25:33;94450.03;;;20.30;100.00
7480;BME280;3781;42.272;22.658;2022-08-25T03:28:18;94457.94;;;20.30;100.00
7480;BME280;3781;42.272;22.658;2022-08-25T03:30:45;94456.94;;;20.31;100.00
7480;BME280;3781;42.272;22.658;2022-08-25T03:33:13;94455.13;;;20.38;100.00
7480;BME280;3781;42.272;22.658;2022-08-25T03:35:40;94459.66;;;20.44;100.00
7480;BME280;3781;42.272;22.658;2022-08-25T03:38:06;94422.66;;;20.31;100.00
7480;BME280;3781;42.272;22.658;2022-08-25T03:40:33;94456.72;;;20.26;100.00
7480;BME280;3781;42.272;22.658;2022-08-25T03:43:00;94447.66;;;20.01;100.00
7480;BME280;3781;42.272;22.658;2022-08-25T03:45:28;94443.50;;;19.85;100.00
7480;BME280;3781;42.272;22.658;2022-08-25T03:47:55;94403.53;;;19.47;100.00
7480;BME280;3781;42.272;22.658;2022-08-25T03:50:23;94449.06;;;19.69;100.00
7480;BME280;3781;42.272;22.658;2022-08-25T03:52:52;94438.50;;;19.63;100.00
7480;BME280;3781;42.272;22.658;2022-08-25T03:55:21;94423.63;;;19.48;100.00
7480;BME280;3781;42.272;22.658;2022-08-25T03:57:48;94420.50;;;19.38;100.00
7480;BME280;3781;42.272;22.658;2022-08-25T04:00:15;94425.75;;;19.38;100.00
7480;BME280;3781;42.272;22.658;2022-08-25T04:02:42;94413.13;;;19.34;100.00
7480;BME280;3781;42.272;22.658;2022-08-25T04:05:09;94401.16;;;19.31;100.00
7480;BME280;3781;42.272;22.658;2022-08-25T04:07:38;94425.47;;;19.54;100.00
7480;BME280;3781;42.272;22.658;2022-08-25T04:10:06;94413.16;;;19.62;100.00
7480;BME280;3781;42.272;22.658;2022-08-25T04:12:34;94431.28;;;19.78;100.00
7480;BME280;3781;42.272;22.658;2022-08-25T04:15:02;94429.78;;;19.96;100.00
7480;BME280;3781;42.272;22.658;2022-08-25T04:17:29;94438.16;;;20.13;100.00
7480;BME280;3781;42.272;22.658;2022-08-25T04:19:55;94431.88;;;20.14;100.00
7480;BME280;3781;42.272;22.658;2022-08-25T04:22:22;94431.16;;;20.26;100.00
7480;BME280;3781;42.272;22.658;2022-08-25T04:24:50;94433.84;;;20.40;100.00
7480;BME280;3781;42.272;22.658;2022-08-25T04:27:17;94434.44;;;20.35;100.00
7480;BME280;3781;42.272;22.658;2022-08-25T04:29:44;94431.44;;;20.04;100.00
7480;BME280;3781;42.272;22.658;2022-08-25T04:32:11;94426.88;;;19.85;100.00
7480;BME280;3781;42.272;22.658;2022-08-25T04:34:38;94426.81;;;19.72;100.00
7480;BME280;3781;42.272;22.658;2022-08-25T04:37:05;94421.53;;;19.72;100.00
7480;BME280;3781;42.272;22.658;2022-08-25T04:39:33;94418.66;;;20.01;100.00
7480;BME280;3781;42.272;22.658;2022-08-25T04:42:02;94387.66;;;20.09;100.00
7480;BME280;3781;42.272;22.658;2022-08-25T04:44:29;94410.41;;;20.17;100.00
7480;BME280;3781;42.272;22.658;2022-08-25T04:46:56;94387.03;;;20.14;100.00
7480;BME280;3781;42.272;22.658;2022-08-25T04:49:23;94403.19;;;20.39;100.00
7480;BME280;3781;42.272;22.658;2022-08-25T04:51:50;94410.16;;;20.59;100.00
7480;BME280;3781;42.272;22.658;2022-08-25T04:54:17;94386.81;;;20.56;100.00
7480;BME280;3781;42.272;22.658;2022-08-25T04:56:46;94400.00;;;20.56;100.00
7480;BME280;3781;42.272;22.658;2022-08-25T04:59:16;94319.50;;;20.06;100.00
7480;BME280;3781;42.272;22.658;2022-08-25T05:01:44;94399.22;;;20.75;100.00
7480;BME280;3781;42.272;22.658;2022-08-25T05:04:13;94406.97;;;20.96;100.00
7480;BME280;3781;42.272;22.658;2022-08-25T05:06:41;94416.28;;;20.92;100.00
7480;BME280;3781;42.272;22.658;2022-08-25T05:09:09;94420.56;;;20.87;100.00
7480;BME280;3781;42.272;22.658;2022-08-25T05:11:36;94400.41;;;20.66;100.00
7480;BME280;3781;42.272;22.658;2022-08-25T05:14:03;94420.34;;;20.88;100.00
7480;BME280;3781;42.272;22.658;2022-08-25T05:16:37;94426.50;;;21.28;100.00
7480;BME280;3781;42.272;22.658;2022-08-25T05:19:04;94429.75;;;21.43;100.00
7480;BME280;3781;42.272;22.658;2022-08-25T05:21:31;94434.22;;;21.56;100.00
7480;BME280;3781;42.272;22.658;2022-08-25T05:24:00;94419.81;;;21.26;100.00
7480;BME280;3781;42.272;22.658;2022-08-25T05:26:29;94396.81;;;21.00;100.00
7480;BME280;3781;42.272;22.658;2022-08-25T05:28:58;94432.19;;;21.19;100.00
7480;BME280;3781;42.272;22.658;2022-08-25T05:31:25;94432.19;;;21.06;100.00
7480;BME280;3781;42.272;22.658;2022-08-25T05:33:54;94436.63;;;20.98;100.00
7480;BME280;3781;42.272;22.658;2022-08-25T05:36:22;94415.50;;;20.85;100.00
7480;BME280;3781;42.272;22.658;2022-08-25T05:38:49;94424.44;;;20.97;100.00
7480;BME280;3781;42.272;22.658;2022-08-25T05:41:18;94404.94;;;20.85;100.00
7480;BME280;3781;42.272;22.658;2022-08-25T05:43:47;94416.94;;;21.21;100.00
7480;BME280;3781;42.272;22.658;2022-08-25T05:46:15;94406.19;;;21.42;100.00
7480;BME280;3781;42.272;22.658;2022-08-25T05:48:42;94412.47;;;21.54;100.00
7480;BME280;3781;42.272;22.658;2022-08-25T05:51:12;94404.47;;;21.93;100.00
7480;BME280;3781;42.272;22.658;2022-08-25T05:53:41;94401.16;;;22.17;100.00
7480;BME280;3781;42.272;22.658;2022-08-25T05:56:08;94414.50;;;22.35;100.00
7480;BME280;3781;42.272;22.658;2022-08-25T05:58:36;94400.97;;;22.57;100.00
7480;BME280;3781;42.272;22.658;2022-08-25T06:01:03;94402.34;;;22.72;100.00
7480;BME280;3781;42.272;22.658;2022-08-25T06:03:44;94399.06;;;23.01;100.00
7480;BME280;3781;42.272;22.658;2022-08-25T06:06:13;94398.97;;;22.90;100.00
7480;BME280;3781;42.272;22.658;2022-08-25T06:08:40;94397.16;;;22.84;100.00
7480;BME280;3781;42.272;22.658;2022-08-25T06:11:07;94398.53;;;22.93;100.00
7480;BME280;3781;42.272;22.658;2022-08-25T06:13:34;94393.13;;;23.37;100.00
7480;BME280;3781;42.272;22.658;2022-08-25T06:16:01;94399.66;;;23.77;100.00
7480;BME280;3781;42.272;22.658;2022-08-25T06:18:28;94403.09;;;24.03;91.80
7480;BME280;3781;42.272;22.658;2022-08-25T06:20:55;94410.63;;;24.24;89.09
7480;BME280;3781;42.272;22.658;2022-08-25T06:23:23;94393.09;;;24.23;87.26
7480;BME280;3781;42.272;22.658;2022-08-25T06:25:50;94408.97;;;24.41;87.70
7480;BME280;3781;42.272;22.658;2022-08-25T06:28:18;94408.97;;;24.59;85.45
7480;BME280;3781;42.272;22.658;2022-08-25T06:30:46;94416.44;;;24.50;82.88
7480;BME280;3781;42.272;22.658;2022-08-25T06:33:13;94408.97;;;24.59;83.31
7480;BME280;3781;42.272;22.658;2022-08-25T06:35:40;94413.38;;;24.65;81.86
7480;BME280;3781;42.272;22.658;2022-08-25T06:38:07;94413.44;;;24.58;83.32
7480;BME280;3781;42.272;22.658;2022-08-25T06:40:36;94408.22;;;24.52;88.56
7480;BME280;3781;42.272;22.658;2022-08-25T06:43:02;94410.81;;;24.58;84.82
7480;BME280;3781;42.272;22.658;2022-08-25T06:45:33;94396.69;;;24.58;81.35
7480;BME280;3781;42.272;22.658;2022-08-25T06:48:00;94410.13;;;24.81;83.38
7480;BME280;3781;42.272;22.658;2022-08-25T06:50:27;94406.50;;;25.05;79.00
7480;BME280;3781;42.272;22.658;2022-08-25T06:52:53;94414.31;;;25.41;76.70
7480;BME280;3781;42.272;22.658;2022-08-25T06:55:21;94412.03;;;25.57;79.85
7480;BME280;3781;42.272;22.658;2022-08-25T06:57:53;94411.34;;;25.96;72.27
7480;BME280;3781;42.272;22.658;2022-08-25T07:00:20;94412.28;;;25.90;75.68
7480;BME280;3781;42.272;22.658;2022-08-25T07:02:47;94415.03;;;25.95;71.43
7480;BME280;3781;42.272;22.658;2022-08-25T07:05:14;94416.81;;;25.66;72.59
7480;BME280;3781;42.272;22.658;2022-08-25T07:07:41;94404.34;;;25.37;75.75
7480;BME280;3781;42.272;22.658;2022-08-25T07:10:09;94404.59;;;25.35;82.06
7480;BME280;3781;42.272;22.658;2022-08-25T07:12:37;94407.56;;;25.27;81.36
7480;BME280;3781;42.272;22.658;2022-08-25T07:15:06;94407.16;;;25.54;81.42
7480;BME280;3781;42.272;22.658;2022-08-25T07:17:33;94394.47;;;25.79;76.16
7480;BME280;3781;42.272;22.658;2022-08-25T07:19:59;94414.47;;;26.16;76.82
7480;BME280;3781;42.272;22.658;2022-08-25T07:22:26;94409.94;;;26.16;72.67
7480;BME280;3781;42.272;22.658;2022-08-25T07:24:53;94406.94;;;26.13;77.04
7480;BME280;3781;42.272;22.658;2022-08-25T07:27:20;94408.09;;;26.17;73.21
7480;BME280;3781;42.272;22.658;2022-08-25T07:29:47;94409.69;;;26.30;73.52
7480;BME280;3781;42.272;22.658;2022-08-25T07:32:16;94410.13;;;26.38;69.31
7480;BME280;3781;42.272;22.658;2022-08-25T07:34:42;94413.72;;;26.44;71.13
7480;BME280;3781;42.272;22.658;2022-08-25T07:37:26;94421.72;;;26.32;68.03
7480;BME280;3781;42.272;22.658;2022-08-25T07:39:53;94420.75;;;26.61;69.17
7480;BME280;3781;42.272;22.658;2022-08-25T07:42:20;94416.00;;;26.92;70.02
7480;BME280;3781;42.272;22.658;2022-08-25T07:44:47;94413.22;;;27.15;69.55
7480;BME280;3781;42.272;22.658;2022-08-25T07:47:15;94422.31;;;27.80;64.08
7480;BME280;3781;42.272;22.658;2022-08-25T07:49:42;94423.72;;;27.66;61.48
7480;BME280;3781;42.272;22.658;2022-08-25T07:52:08;94417.72;;;28.09;61.35
7480;BME280;3781;42.272;22.658;2022-08-25T07:54:36;94415.44;;;27.84;62.12
7480;BME280;3781;42.272;22.658;2022-08-25T07:57:04;94425.63;;;28.04;62.24
7480;BME280;3781;42.272;22.658;2022-08-25T07:59:31;94411.88;;;28.12;62.50
7480;BME280;3781;42.272;22.658;2022-08-25T08:01:58;94428.16;;;28.32;60.25
7480;BME280;3781;42.272;22.658;2022-08-25T08:04:26;94428.63;;;28.46;58.30
7480;BME280;3781;42.272;22.658;2022-08-25T08:06:53;94425.16;;;28.67;58.72
7480;BME280;3781;42.272;22.658;2022-08-25T08:09:20;94421.16;;;28.48;61.04
7480;BME280;3781;42.272;22.658;2022-08-25T08:11:47;94422.78;;;28.49;58.24
7480;BME280;3781;42.272;22.658;2022-08-25T08:14:14;94414.47;;;28.67;58.43
7480;BME280;3781;42.272;22.658;2022-08-25T08:16:41;94425.38;;;28.44;58.61
7480;BME280;3781;42.272;22.658;2022-08-25T08:19:08;94427.81;;;29.15;56.42
7480;BME280;3781;42.272;22.658;2022-08-25T08:21:36;94425.53;;;30.24;55.12
7480;BME280;3781;42.272;22.658;2022-08-25T08:24:03;94422.81;;;31.78;48.80
7480;BME280;3781;42.272;22.658;2022-08-25T08:26:30;94414.75;;;32.08;47.50
7480;BME280;3781;42.272;22.658;2022-08-25T08:28:57;94413.16;;;31.97;45.92
7480;BME280;3781;42.272;22.658;2022-08-25T08:31:25;94400.16;;;30.98;48.07
7480;BME280;3781;42.272;22.658;2022-08-25T08:33:54;94416.91;;;31.56;50.70
7480;BME280;3781;42.272;22.658;2022-08-25T08:36:21;94411.13;;;30.87;51.49
7480;BME280;3781;42.272;22.658;2022-08-25T08:38:51;94406.75;;;30.19;51.11
7480;BME280;3781;42.272;22.658;2022-08-25T08:41:35;94403.66;;;30.37;50.86
7480;BME280;3781;42.272;22.658;2022-08-25T08:44:26;94406.69;;;31.83;48.36
7480;BME280;3781;42.272;22.658;2022-08-25T08:46:59;94397.50;;;31.08;48.17
7480;BME280;3781;42.272;22.658;2022-08-25T08:49:33;94408.78;;;31.05;48.75
7480;BME280;3781;42.272;22.658;2022-08-25T08:52:02;94409.56;;;31.11;49.16
7480;BME280;3781;42.272;22.658;2022-08-25T08:54:33;94407.78;;;31.57;48.48
7480;BME280;3781;42.272;22.658;2022-08-25T08:57:07;94407.75;;;31.32;49.27
7480;BME280;3781;42.272;22.658;2022-08-25T08:59:42;94410.94;;;31.28;48.74
7480;BME280;3781;42.272;22.658;2022-08-25T09:02:14;94403.38;;;32.46;46.88
7480;BME280;3781;42.272;22.658;2022-08-25T09:04:45;94390.59;;;32.03;43.11
7480;BME280;3781;42.272;22.658;2022-08-25T09:07:18;94396.22;;;31.56;45.72
7480;BME280;3781;42.272;22.658;2022-08-25T09:09:48;94401.03;;;31.39;45.42
7480;BME280;3781;42.272;22.658;2022-08-25T09:12:22;94385.59;;;30.79;46.20
7480;BME280;3781;42.272;22.658;2022-08-25T09:14:59;94400.09;;;30.83;47.70
7480;BME280;3781;42.272;22.658;2022-08-25T09:17:42;94395.97;;;31.68;45.48
7480;BME280;3781;42.272;22.658;2022-08-25T09:23:15;94394.69;;;30.21;46.51
7480;BME280;3781;42.272;22.658;2022-08-25T09:25:54;94380.50;;;30.83;46.62
7480;BME280;3781;42.272;22.658;2022-08-25T09:28:29;94382.81;;;31.46;44.00
7480;BME280;3781;42.272;22.658;2022-08-25T09:30:59;94364.25;;;32.10;43.21
7480;BME280;3781;42.272;22.658;2022-08-25T09:33:28;94384.06;;;32.24;45.33
7480;BME280;3781;42.272;22.658;2022-08-25T09:35:55;94381.38;;;33.03;44.42
7480;BME280;3781;42.272;22.658;2022-08-25T09:38:23;94375.31;;;32.78;45.21
7480;BME280;3781;42.272;22.658;2022-08-25T09:40:54;94372.66;;;33.60;44.85
7480;BME280;3781;42.272;22.658;2022-08-25T09:43:23;94380.00;;;35.07;42.09
7480;BME280;3781;42.272;22.658;2022-08-25T09:45:59;94378.59;;;35.46;37.98
7480;BME280;3781;42.272;22.658;2022-08-25T09:48:29;94364.91;;;35.75;36.85
7480;BME280;3781;42.272;22.658;2022-08-25T09:51:11;94370.66;;;36.33;38.04
7480;BME280;3781;42.272;22.658;2022-08-25T09:53:50;94352.06;;;36.45;35.68
7480;BME280;3781;42.272;22.658;2022-08-25T09:56:21;94357.84;;;35.93;34.69
7480;BME280;3781;42.272;22.658;2022-08-25T09:58:48;94366.34;;;35.35;34.13
7480;BME280;3781;42.272;22.658;2022-08-25T10:01:17;94357.44;;;35.16;34.86
7480;BME280;3781;42.272;22.658;2022-08-25T10:03:59;94364.88;;;34.40;37.96
7480;BME280;3781;42.272;22.658;2022-08-25T10:06:29;94348.16;;;33.85;37.14
7480;BME280;3781;42.272;22.658;2022-08-25T10:09:02;94361.81;;;32.83;38.03
7480;BME280;3781;42.272;22.658;2022-08-25T10:11:40;94357.19;;;32.19;38.50
7480;BME280;3781;42.272;22.658;2022-08-25T10:14:16;94351.00;;;32.93;37.78
7480;BME280;3781;42.272;22.658;2022-08-25T10:16:44;94346.34;;;33.47;37.04
7480;BME280;3781;42.272;22.658;2022-08-25T10:19:13;94358.06;;;32.84;37.21
7480;BME280;3781;42.272;22.658;2022-08-25T10:22:02;94357.09;;;32.64;37.58
7480;BME280;3781;42.272;22.658;2022-08-25T10:24:29;94336.81;;;32.13;39.17
7480;BME280;3781;42.272;22.658;2022-08-25T10:27:02;94350.59;;;31.61;40.51
7480;BME280;3781;42.272;22.658;2022-08-25T10:29:42;94341.13;;;30.98;42.73
7480;BME280;3781;42.272;22.658;2022-08-25T10:32:15;94339.69;;;30.04;42.85
7480;BME280;3781;42.272;22.658;2022-08-25T10:34:47;94348.38;;;29.42;43.85
7480;BME280;3781;42.272;22.658;2022-08-25T10:37:22;94333.22;;;28.94;44.26
7480;BME280;3781;42.272;22.658;2022-08-25T10:39:59;94346.91;;;29.25;44.23
7480;BME280;3781;42.272;22.658;2022-08-25T10:42:34;94340.97;;;29.91;42.15
7480;BME280;3781;42.272;22.658;2022-08-25T10:45:19;94336.22;;;32.26;41.74
7480;BME280;3781;42.272;22.658;2022-08-25T10:48:27;94344.50;;;34.05;39.01
7480;BME280;3781;42.272;22.658;2022-08-25T10:51:02;94350.31;;;34.83;36.59
7480;BME280;3781;42.272;22.658;2022-08-25T10:53:42;94345.53;;;34.33;35.97
7480;BME280;3781;42.272;22.658;2022-08-25T10:56:15;94336.53;;;34.19;41.42
7480;BME280;3781;42.272;22.658;2022-08-25T10:59:14;94334.09;;;35.25;35.93
7480;BME280;3781;42.272;22.658;2022-08-25T11:02:01;94334.81;;;35.49;35.84
7480;BME280;3781;42.272;22.658;2022-08-25T11:04:36;94339.28;;;34.13;36.71
7480;BME280;3781;42.272;22.658;2022-08-25T11:07:09;94325.94;;;32.53;40.37
7480;BME280;3781;42.272;22.658;2022-08-25T11:09:39;94324.25;;;31.18;42.49
7480;BME280;3781;42.272;22.658;2022-08-25T11:12:10;94321.81;;;30.19;42.05
7480;BME280;3781;42.272;22.658;2022-08-25T11:14:45;94323.97;;;29.70;45.31
7480;BME280;3781;42.272;22.658;2022-08-25T11:17:18;94314.19;;;29.54;45.40
7480;BME280;3781;42.272;22.658;2022-08-25T11:19:49;94316.44;;;29.67;45.46
7480;BME280;3781;42.272;22.658;2022-08-25T11:22:25;94313.75;;;30.91;47.59
7480;BME280;3781;42.272;22.658;2022-08-25T11:25:01;94316.44;;;31.97;40.30
7480;BME280;3781;42.272;22.658;2022-08-25T11:27:36;94295.53;;;31.34;40.95
7480;BME280;3781;42.272;22.658;2022-08-25T11:30:07;94285.09;;;31.12;43.85
7480;BME280;3781;42.272;22.658;2022-08-25T11:32:36;94306.81;;;31.10;44.23
7480;BME280;3781;42.272;22.658;2022-08-25T11:35:06;94305.59;;;30.46;45.29
7480;BME280;3781;42.272;22.658;2022-08-25T11:37:34;94294.16;;;29.99;47.20
7480;BME280;3781;42.272;22.658;2022-08-25T11:40:27;94289.19;;;29.75;45.69
7480;BME280;3781;42.272;22.658;2022-08-25T11:43:08;94291.28;;;29.00;45.49
7480;BME280;3781;42.272;22.658;2022-08-25T11:46:00;94284.13;;;29.79;44.76
7480;BME280;3781;42.272;22.658;2022-08-25T11:48:36;94284.03;;;32.37;40.68
7480;BME280;3781;42.272;22.658;2022-08-25T11:51:07;94291.00;;;34.78;37.19
7480;BME280;3781;42.272;22.658;2022-08-25T11:53:36;94285.38;;;35.30;34.29
7480;BME280;3781;42.272;22.658;2022-08-25T11:56:05;94297.59;;;35.09;37.30
7480;BME280;3781;42.272;22.658;2022-08-25T11:58:42;94291.00;;;34.78;37.33
7480;BME280;3781;42.272;22.658;2022-08-25T12:04:33;94273.09;;;32.78;38.10
7480;BME280;3781;42.272;22.658;2022-08-25T12:10:16;94269.78;;;31.22;42.32
7480;BME280;3781;42.272;22.658;2022-08-25T12:13:00;94273.00;;;31.04;40.92
7480;BME280;3781;42.272;22.658;2022-08-25T12:15:32;94270.19;;;30.39;41.20
7480;BME280;3781;42.272;22.658;2022-08-25T12:18:11;94262.69;;;30.36;43.20
7480;BME280;3781;42.272;22.658;2022-08-25T12:21:12;94267.03;;;30.62;41.61
7480;BME280;3781;42.272;22.658;2022-08-25T12:23:41;94266.56;;;31.05;40.33
7480;BME280;3781;42.272;22.658;2022-08-25T12:26:15;94269.25;;;31.20;39.45
7480;BME280;3781;42.272;22.658;2022-08-25T12:29:03;94259.91;;;32.27;39.67
7480;BME280;3781;42.272;22.658;2022-08-25T12:31:51;94243.09;;;32.02;40.16
7480;BME280;3781;42.272;22.658;2022-08-25T12:34:35;94258.53;;;31.41;40.61
7480;BME280;3781;42.272;22.658;2022-08-25T12:37:13;94263.88;;;31.10;42.63
7480;BME280;3781;42.272;22.658;2022-08-25T12:39:49;94242.13;;;30.77;42.40
7480;BME280;3781;42.272;22.658;2022-08-25T12:42:22;94247.53;;;31.07;44.33
7480;BME280;3781;42.272;22.658;2022-08-25T12:51:04;94256.94;;;32.78;37.92
7480;BME280;3781;42.272;22.658;2022-08-25T12:53:34;94244.56;;;35.00;36.58
7480;BME280;3781;42.272;22.658;2022-08-25T12:56:06;94246.69;;;36.62;33.47
7480;BME280;3781;42.272;22.658;2022-08-25T12:58:46;94267.28;;;37.43;33.76
7480;BME280;3781;42.272;22.658;2022-08-25T13:01:22;94245.72;;;36.31;32.84
7480;BME280;3781;42.272;22.658;2022-08-25T13:07:17;94253.22;;;35.15;34.37
7480;BME280;3781;42.272;22.658;2022-08-25T13:13:02;94262.00;;;34.04;35.79
7480;BME280;3781;42.272;22.658;2022-08-25T13:15:37;94260.25;;;34.18;37.21
7480;BME280;3781;42.272;22.658;2022-08-25T13:18:21;94233.06;;;34.14;37.36
7480;BME280;3781;42.272;22.658;2022-08-25T13:20:52;94257.28;;;33.05;37.34
7480;BME280;3781;42.272;22.658;2022-08-25T13:23:27;94258.47;;;31.66;39.46
7480;BME280;3781;42.272;22.658;2022-08-25T13:25:55;94246.19;;;30.94;41.32
7480;BME280;3781;42.272;22.658;2022-08-25T13:28:26;94249.84;;;30.58;42.78
7480;BME280;3781;42.272;22.658;2022-08-25T13:30:59;94245.06;;;30.75;43.80
7480;BME280;3781;42.272;22.658;2022-08-25T13:33:26;94265.22;;;31.28;42.64
7480;BME280;3781;42.272;22.658;2022-08-25T13:35:55;94257.88;;;32.58;42.29
7480;BME280;3781;42.272;22.658;2022-08-25T13:38:38;94251.84;;;34.20;39.06
7480;BME280;3781;42.272;22.658;2022-08-25T13:41:06;94231.81;;;35.05;36.64
7480;BME280;3781;42.272;22.658;2022-08-25T13:43:34;94242.78;;;36.41;34.58